sensor_id;sensor_type;location;lat;lon;timestamp;temperature;humidity
10171;DHT22;5127;50.922;6.988;2022-09-09T00:00:53;21.20;65.50
10171;DHT22;5127;50.922;6.988;2022-09-09T00:03:26;21.20;65.20
10171;DHT22;5127;50.922;6.988;2022-09-09T00:06:00;21.20;65.10
10171;DHT22;5127;50.922;6.988;2022-09-09T00:08:37;21.20;65.00
10171;DHT22;5127;50.922;6.988;2022-09-09T00:11:12;21.20;64.80
10171;DHT22;5127;50.922;6.988;2022-09-09T00:13:44;21.20;65.50
10171;DHT22;5127;50.922;6.988;2022-09-09T00:16:16;21.30;64.70
10171;DHT22;5127;50.922;6.988;2022-09-09T00:18:53;21.20;64.80
10171;DHT22;5127;50.922;6.988;2022-09-09T00:21:25;21.20;64.30
10171;DHT22;5127;50.922;6.988;2022-09-09T00:23:54;21.10;64.30
10171;DHT22;5127;50.922;6.988;2022-09-09T00:26:26;21.10;64.60
10171;DHT22;5127;50.922;6.988;2022-09-09T00:29:04;21.10;64.50
10171;DHT22;5127;50.922;6.988;2022-09-09T00:31:32;21.00;64.30
10171;DHT22;5127;50.922;6.988;2022-09-09T00:34:04;20.90;64.60
10171;DHT22;5127;50.922;6.988;2022-09-09T00:36:38;20.90;64.30
10171;DHT22;5127;50.922;6.988;2022-09-09T00:39:05;20.90;64.40
10171;DHT22;5127;50.922;6.988;2022-09-09T00:41:48;20.90;64.50
10171;DHT22;5127;50.922;6.988;2022-09-09T00:44:27;20.90;63.80
10171;DHT22;5127;50.922;6.988;2022-09-09T00:47:18;20.80;63.90
10171;DHT22;5127;50.922;6.988;2022-09-09T00:49:59;20.80;63.90
10171;DHT22;5127;50.922;6.988;2022-09-09T00:52:44;20.80;64.00
10171;DHT22;5127;50.922;6.988;2022-09-09T00:55:17;20.80;63.80
10171;DHT22;5127;50.922;6.988;2022-09-09T00:57:48;20.80;64.30
10171;DHT22;5127;50.922;6.988;2022-09-09T01:00:21;20.80;64.50
10171;DHT22;5127;50.922;6.988;2022-09-09T01:03:02;20.80;64.50
10171;DHT22;5127;50.922;6.988;2022-09-09T01:05:35;20.80;64.30
10171;DHT22;5127;50.922;6.988;2022-09-09T01:08:16;20.80;64.40
10171;DHT22;5127;50.922;6.988;2022-09-09T01:11:54;20.80;64.10
10171;DHT22;5127;50.922;6.988;2022-09-09T01:14:40;20.70;63.80
10171;DHT22;5127;50.922;6.988;2022-09-09T01:17:14;20.70;63.60
10171;DHT22;5127;50.922;6.988;2022-09-09T01:20:04;20.70;64.10
10171;DHT22;5127;50.922;6.988;2022-09-09T01:22:44;20.70;63.90
10171;DHT22;5127;50.922;6.988;2022-09-09T01:25:29;20.70;64.40
10171;DHT22;5127;50.922;6.988;2022-09-09T01:28:09;20.70;63.90
10171;DHT22;5127;50.922;6.988;2022-09-09T01:30:39;20.70;64.50
10171;DHT22;5127;50.922;6.988;2022-09-09T01:33:13;20.70;64.60
10171;DHT22;5127;50.922;6.988;2022-09-09T01:35:45;20.70;64.60
10171;DHT22;5127;50.922;6.988;2022-09-09T01:38:15;20.70;64.50
10171;DHT22;5127;50.922;6.988;2022-09-09T01:40:44;20.70;64.70
10171;DHT22;5127;50.922;6.988;2022-09-09T01:43:13;20.60;64.70
10171;DHT22;5127;50.922;6.988;2022-09-09T01:45:42;20.60;64.60
10171;DHT22;5127;50.922;6.988;2022-09-09T01:48:11;20.60;64.80
10171;DHT22;5127;50.922;6.988;2022-09-09T01:50:44;20.50;64.80
10171;DHT22;5127;50.922;6.988;2022-09-09T01:53:13;20.50;64.90
10171;DHT22;5127;50.922;6.988;2022-09-09T01:55:46;20.60;65.00
10171;DHT22;5127;50.922;6.988;2022-09-09T01:58:27;20.50;64.90
10171;DHT22;5127;50.922;6.988;2022-09-09T02:01:04;20.50;64.70
10171;DHT22;5127;50.922;6.988;2022-09-09T02:03:35;20.50;64.80
10171;DHT22;5127;50.922;6.988;2022-09-09T02:06:25;20.40;65.00
10171;DHT22;5127;50.922;6.988;2022-09-09T02:08:59;20.50;64.90
10171;DHT22;5127;50.922;6.988;2022-09-09T02:11:28;20.50;65.20
10171;DHT22;5127;50.922;6.988;2022-09-09T02:14:12;20.50;65.40
10171;DHT22;5127;50.922;6.988;2022-09-09T02:16:47;20.50;65.00
10171;DHT22;5127;50.922;6.988;2022-09-09T02:19:18;20.50;65.30
10171;DHT22;5127;50.922;6.988;2022-09-09T02:22:17;20.50;65.10
10171;DHT22;5127;50.922;6.988;2022-09-09T02:24:47;20.50;65.10
10171;DHT22;5127;50.922;6.988;2022-09-09T02:27:22;20.60;65.40
10171;DHT22;5127;50.922;6.988;2022-09-09T02:29:53;20.50;65.20
10171;DHT22;5127;50.922;6.988;2022-09-09T02:32:35;20.60;65.20
10171;DHT22;5127;50.922;6.988;2022-09-09T02:35:08;20.50;65.10
10171;DHT22;5127;50.922;6.988;2022-09-09T02:37:39;20.50;65.10
10171;DHT22;5127;50.922;6.988;2022-09-09T02:40:10;20.50;65.20
10171;DHT22;5127;50.922;6.988;2022-09-09T02:42:44;20.50;65.20
10171;DHT22;5127;50.922;6.988;2022-09-09T02:45:15;20.60;65.40
10171;DHT22;5127;50.922;6.988;2022-09-09T02:47:50;20.50;65.10
10171;DHT22;5127;50.922;6.988;2022-09-09T02:50:25;20.50;65.10
10171;DHT22;5127;50.922;6.988;2022-09-09T02:53:07;20.60;65.30
10171;DHT22;5127;50.922;6.988;2022-09-09T02:55:45;20.50;65.10
10171;DHT22;5127;50.922;6.988;2022-09-09T02:58:17;20.50;65.10
10171;DHT22;5127;50.922;6.988;2022-09-09T03:00:55;20.50;65.40
10171;DHT22;5127;50.922;6.988;2022-09-09T03:03:23;20.50;65.40
10171;DHT22;5127;50.922;6.988;2022-09-09T03:05:52;20.50;65.50
10171;DHT22;5127;50.922;6.988;2022-09-09T03:08:19;20.50;65.50
10171;DHT22;5127;50.922;6.988;2022-09-09T03:10:47;20.50;65.60
10171;DHT22;5127;50.922;6.988;2022-09-09T03:13:15;20.50;65.70
10171;DHT22;5127;50.922;6.988;2022-09-09T03:15:45;20.50;65.70
10171;DHT22;5127;50.922;6.988;2022-09-09T03:18:17;20.50;65.70
10171;DHT22;5127;50.922;6.988;2022-09-09T03:20:49;20.50;65.70
10171;DHT22;5127;50.922;6.988;2022-09-09T03:23:17;20.60;65.90
10171;DHT22;5127;50.922;6.988;2022-09-09T03:25:49;20.50;65.80
10171;DHT22;5127;50.922;6.988;2022-09-09T03:28:21;20.50;65.40
10171;DHT22;5127;50.922;6.988;2022-09-09T03:30:50;20.50;65.70
10171;DHT22;5127;50.922;6.988;2022-09-09T03:33:20;20.50;65.70
10171;DHT22;5127;50.922;6.988;2022-09-09T03:35:48;20.60;65.70
10171;DHT22;5127;50.922;6.988;2022-09-09T03:38:16;20.50;65.70
10171;DHT22;5127;50.922;6.988;2022-09-09T03:40:49;20.50;65.80
10171;DHT22;5127;50.922;6.988;2022-09-09T03:43:17;20.60;65.40
10171;DHT22;5127;50.922;6.988;2022-09-09T03:45:46;20.60;65.90
10171;DHT22;5127;50.922;6.988;2022-09-09T03:48:15;20.60;65.80
10171;DHT22;5127;50.922;6.988;2022-09-09T03:50:46;20.60;65.80
10171;DHT22;5127;50.922;6.988;2022-09-09T03:53:14;20.50;65.40
10171;DHT22;5127;50.922;6.988;2022-09-09T03:55:44;20.60;65.70
10171;DHT22;5127;50.922;6.988;2022-09-09T03:58:12;20.60;65.60
10171;DHT22;5127;50.922;6.988;2022-09-09T04:00:40;20.60;65.70
10171;DHT22;5127;50.922;6.988;2022-09-09T04:03:08;20.60;65.70
10171;DHT22;5127;50.922;6.988;2022-09-09T04:05:36;20.60;65.70
10171;DHT22;5127;50.922;6.988;2022-09-09T04:08:07;20.50;65.60
10171;DHT22;5127;50.922;6.988;2022-09-09T04:10:35;20.50;65.50
10171;DHT22;5127;50.922;6.988;2022-09-09T04:13:04;20.60;65.70
10171;DHT22;5127;50.922;6.988;2022-09-09T04:15:32;20.60;65.80
10171;DHT22;5127;50.922;6.988;2022-09-09T04:18:00;20.50;65.70
10171;DHT22;5127;50.922;6.988;2022-09-09T04:20:28;20.50;65.70
10171;DHT22;5127;50.922;6.988;2022-09-09T04:22:56;20.50;65.80
10171;DHT22;5127;50.922;6.988;2022-09-09T04:25:25;20.50;65.70
10171;DHT22;5127;50.922;6.988;2022-09-09T04:27:53;20.50;65.70
10171;DHT22;5127;50.922;6.988;2022-09-09T04:30:21;20.50;65.60
10171;DHT22;5127;50.922;6.988;2022-09-09T04:32:48;20.50;65.80
10171;DHT22;5127;50.922;6.988;2022-09-09T04:35:16;20.50;65.80
10171;DHT22;5127;50.922;6.988;2022-09-09T04:37:45;20.50;65.80
10171;DHT22;5127;50.922;6.988;2022-09-09T04:40:12;20.50;65.80
10171;DHT22;5127;50.922;6.988;2022-09-09T04:42:41;20.50;65.80
10171;DHT22;5127;50.922;6.988;2022-09-09T04:45:11;20.50;65.50
10171;DHT22;5127;50.922;6.988;2022-09-09T04:47:40;20.60;65.70
10171;DHT22;5127;50.922;6.988;2022-09-09T04:50:08;20.50;65.60
10171;DHT22;5127;50.922;6.988;2022-09-09T04:52:35;20.50;65.60
10171;DHT22;5127;50.922;6.988;2022-09-09T04:55:04;20.50;65.60
10171;DHT22;5127;50.922;6.988;2022-09-09T04:57:32;20.50;65.50
10171;DHT22;5127;50.922;6.988;2022-09-09T05:00:01;20.50;65.60
10171;DHT22;5127;50.922;6.988;2022-09-09T05:02:32;20.50;65.50
10171;DHT22;5127;50.922;6.988;2022-09-09T05:05:01;20.60;65.80
10171;DHT22;5127;50.922;6.988;2022-09-09T05:07:29;20.60;65.90
10171;DHT22;5127;50.922;6.988;2022-09-09T05:09:57;20.50;65.80
10171;DHT22;5127;50.922;6.988;2022-09-09T05:12:25;20.50;65.80
10171;DHT22;5127;50.922;6.988;2022-09-09T05:14:53;20.50;65.90
10171;DHT22;5127;50.922;6.988;2022-09-09T05:17:21;20.50;66.10
10171;DHT22;5127;50.922;6.988;2022-09-09T05:19:48;20.50;66.00
10171;DHT22;5127;50.922;6.988;2022-09-09T05:22:18;20.50;66.10
10171;DHT22;5127;50.922;6.988;2022-09-09T05:24:46;20.50;66.20
10171;DHT22;5127;50.922;6.988;2022-09-09T05:27:17;20.40;66.30
10171;DHT22;5127;50.922;6.988;2022-09-09T05:29:45;20.40;66.50
10171;DHT22;5127;50.922;6.988;2022-09-09T05:32:13;20.40;66.60
10171;DHT22;5127;50.922;6.988;2022-09-09T05:34:43;20.30;66.50
10171;DHT22;5127;50.922;6.988;2022-09-09T05:37:10;20.30;66.60
10171;DHT22;5127;50.922;6.988;2022-09-09T05:39:37;20.30;66.60
10171;DHT22;5127;50.922;6.988;2022-09-09T05:42:05;20.20;66.60
10171;DHT22;5127;50.922;6.988;2022-09-09T05:44:33;20.20;66.70
10171;DHT22;5127;50.922;6.988;2022-09-09T05:47:01;20.10;66.80
10171;DHT22;5127;50.922;6.988;2022-09-09T05:49:28;20.10;66.90
10171;DHT22;5127;50.922;6.988;2022-09-09T05:51:57;20.00;67.00
10171;DHT22;5127;50.922;6.988;2022-09-09T05:54:24;19.90;67.10
10171;DHT22;5127;50.922;6.988;2022-09-09T05:56:52;19.90;67.30
10171;DHT22;5127;50.922;6.988;2022-09-09T05:59:20;19.90;67.50
10171;DHT22;5127;50.922;6.988;2022-09-09T06:01:50;19.90;67.70
10171;DHT22;5127;50.922;6.988;2022-09-09T06:04:26;19.90;67.80
10171;DHT22;5127;50.922;6.988;2022-09-09T06:06:53;19.90;67.80
10171;DHT22;5127;50.922;6.988;2022-09-09T06:09:23;19.90;67.90
10171;DHT22;5127;50.922;6.988;2022-09-09T06:11:51;19.90;68.00
10171;DHT22;5127;50.922;6.988;2022-09-09T06:14:20;19.90;68.10
10171;DHT22;5127;50.922;6.988;2022-09-09T06:16:49;19.90;68.00
10171;DHT22;5127;50.922;6.988;2022-09-09T06:19:20;19.90;68.20
10171;DHT22;5127;50.922;6.988;2022-09-09T06:21:48;19.90;68.20
10171;DHT22;5127;50.922;6.988;2022-09-09T06:24:16;20.00;68.20
10171;DHT22;5127;50.922;6.988;2022-09-09T06:26:46;20.00;68.20
10171;DHT22;5127;50.922;6.988;2022-09-09T06:29:20;20.00;68.10
10171;DHT22;5127;50.922;6.988;2022-09-09T06:31:47;20.00;68.10
10171;DHT22;5127;50.922;6.988;2022-09-09T06:34:19;20.00;67.80
10171;DHT22;5127;50.922;6.988;2022-09-09T06:36:50;20.10;68.00
10171;DHT22;5127;50.922;6.988;2022-09-09T06:39:17;20.00;67.90
10171;DHT22;5127;50.922;6.988;2022-09-09T06:41:47;20.10;67.90
10171;DHT22;5127;50.922;6.988;2022-09-09T06:44:34;20.10;67.90
10171;DHT22;5127;50.922;6.988;2022-09-09T06:47:05;20.10;68.00
10171;DHT22;5127;50.922;6.988;2022-09-09T06:49:33;20.10;67.90
10171;DHT22;5127;50.922;6.988;2022-09-09T06:52:03;20.20;67.90
10171;DHT22;5127;50.922;6.988;2022-09-09T06:54:31;20.20;67.80
10171;DHT22;5127;50.922;6.988;2022-09-09T06:56:59;20.20;67.80
10171;DHT22;5127;50.922;6.988;2022-09-09T06:59:27;20.20;67.80
10171;DHT22;5127;50.922;6.988;2022-09-09T07:01:56;20.20;67.70
10171;DHT22;5127;50.922;6.988;2022-09-09T07:04:24;20.20;67.80
10171;DHT22;5127;50.922;6.988;2022-09-09T07:06:52;20.30;67.80
10171;DHT22;5127;50.922;6.988;2022-09-09T07:09:23;20.30;67.90
10171;DHT22;5127;50.922;6.988;2022-09-09T07:11:52;20.40;67.80
10171;DHT22;5127;50.922;6.988;2022-09-09T07:14:22;20.40;68.30
10171;DHT22;5127;50.922;6.988;2022-09-09T07:16:54;20.50;68.70
10171;DHT22;5127;50.922;6.988;2022-09-09T07:19:22;20.70;70.00
10171;DHT22;5127;50.922;6.988;2022-09-09T07:21:52;21.00;71.10
10171;DHT22;5127;50.922;6.988;2022-09-09T07:24:22;21.40;71.80
10171;DHT22;5127;50.922;6.988;2022-09-09T07:26:50;21.80;72.40
10171;DHT22;5127;50.922;6.988;2022-09-09T07:29:18;22.30;72.10
10171;DHT22;5127;50.922;6.988;2022-09-09T07:31:46;22.80;72.00
10171;DHT22;5127;50.922;6.988;2022-09-09T07:34:19;23.30;70.10
10171;DHT22;5127;50.922;6.988;2022-09-09T07:36:46;23.80;70.00
10171;DHT22;5127;50.922;6.988;2022-09-09T07:39:17;24.20;69.10
10171;DHT22;5127;50.922;6.988;2022-09-09T07:41:49;24.60;68.00
10171;DHT22;5127;50.922;6.988;2022-09-09T07:44:21;24.90;68.10
10171;DHT22;5127;50.922;6.988;2022-09-09T07:46:55;25.20;67.00
10171;DHT22;5127;50.922;6.988;2022-09-09T07:49:28;25.60;66.10
10171;DHT22;5127;50.922;6.988;2022-09-09T07:51:55;25.80;64.80
10171;DHT22;5127;50.922;6.988;2022-09-09T07:54:22;25.90;63.20
10171;DHT22;5127;50.922;6.988;2022-09-09T07:56:52;25.90;62.20
10171;DHT22;5127;50.922;6.988;2022-09-09T07:59:22;25.80;60.60
10171;DHT22;5127;50.922;6.988;2022-09-09T08:01:52;25.70;60.40
10171;DHT22;5127;50.922;6.988;2022-09-09T08:04:24;25.50;60.40
10171;DHT22;5127;50.922;6.988;2022-09-09T08:06:54;25.30;60.40
10171;DHT22;5127;50.922;6.988;2022-09-09T08:09:24;25.10;60.40
10171;DHT22;5127;50.922;6.988;2022-09-09T08:11:54;25.00;60.60
10171;DHT22;5127;50.922;6.988;2022-09-09T08:14:24;24.80;60.30
10171;DHT22;5127;50.922;6.988;2022-09-09T08:16:51;24.60;60.10
10171;DHT22;5127;50.922;6.988;2022-09-09T08:19:23;24.50;60.10
10171;DHT22;5127;50.922;6.988;2022-09-09T08:21:52;24.40;60.30
10171;DHT22;5127;50.922;6.988;2022-09-09T08:24:20;24.20;60.20
10171;DHT22;5127;50.922;6.988;2022-09-09T08:26:49;24.10;60.50
10171;DHT22;5127;50.922;6.988;2022-09-09T08:29:20;24.00;60.30
10171;DHT22;5127;50.922;6.988;2022-09-09T08:31:49;24.00;60.60
10171;DHT22;5127;50.922;6.988;2022-09-09T08:34:18;23.90;60.80
10171;DHT22;5127;50.922;6.988;2022-09-09T08:36:50;24.00;61.20
10171;DHT22;5127;50.922;6.988;2022-09-09T08:39:22;24.00;60.90
10171;DHT22;5127;50.922;6.988;2022-09-09T08:42:09;24.00;60.60
10171;DHT22;5127;50.922;6.988;2022-09-09T08:44:49;24.10;59.40
10171;DHT22;5127;50.922;6.988;2022-09-09T08:47:25;24.10;59.30
10171;DHT22;5127;50.922;6.988;2022-09-09T08:50:05;24.20;59.40
10171;DHT22;5127;50.922;6.988;2022-09-09T08:52:41;24.30;59.30
10171;DHT22;5127;50.922;6.988;2022-09-09T08:55:23;24.30;59.10
10171;DHT22;5127;50.922;6.988;2022-09-09T08:57:55;24.30;57.50
10171;DHT22;5127;50.922;6.988;2022-09-09T09:00:32;24.30;58.40
10171;DHT22;5127;50.922;6.988;2022-09-09T09:03:08;24.30;58.00
10171;DHT22;5127;50.922;6.988;2022-09-09T09:05:46;24.30;57.80
10171;DHT22;5127;50.922;6.988;2022-09-09T09:08:22;24.20;58.10
10171;DHT22;5127;50.922;6.988;2022-09-09T09:10:55;24.30;59.10
10171;DHT22;5127;50.922;6.988;2022-09-09T09:13:30;24.50;59.60
10171;DHT22;5127;50.922;6.988;2022-09-09T09:16:06;24.60;59.90
10171;DHT22;5127;50.922;6.988;2022-09-09T09:18:34;24.80;59.50
10171;DHT22;5127;50.922;6.988;2022-09-09T09:21:05;24.90;60.20
10171;DHT22;5127;50.922;6.988;2022-09-09T09:23:39;25.10;59.30
10171;DHT22;5127;50.922;6.988;2022-09-09T09:26:10;25.30;58.20
10171;DHT22;5127;50.922;6.988;2022-09-09T09:28:42;25.50;58.70
10171;DHT22;5127;50.922;6.988;2022-09-09T09:31:14;25.60;56.40
10171;DHT22;5127;50.922;6.988;2022-09-09T09:33:48;25.60;57.60
10171;DHT22;5127;50.922;6.988;2022-09-09T09:36:18;25.50;56.60
10171;DHT22;5127;50.922;6.988;2022-09-09T09:38:57;25.50;57.40
10171;DHT22;5127;50.922;6.988;2022-09-09T09:41:34;25.30;54.90
10171;DHT22;5127;50.922;6.988;2022-09-09T09:44:03;25.20;55.40
10171;DHT22;5127;50.922;6.988;2022-09-09T09:46:31;25.10;56.40
10171;DHT22;5127;50.922;6.988;2022-09-09T09:49:10;25.00;56.80
10171;DHT22;5127;50.922;6.988;2022-09-09T09:51:40;24.80;56.60
10171;DHT22;5127;50.922;6.988;2022-09-09T09:54:15;24.70;56.40
10171;DHT22;5127;50.922;6.988;2022-09-09T09:56:49;24.60;55.50
10171;DHT22;5127;50.922;6.988;2022-09-09T09:59:23;24.50;56.60
10171;DHT22;5127;50.922;6.988;2022-09-09T10:01:51;24.50;56.10
10171;DHT22;5127;50.922;6.988;2022-09-09T10:04:21;24.40;56.90
10171;DHT22;5127;50.922;6.988;2022-09-09T10:06:52;24.40;56.60
10171;DHT22;5127;50.922;6.988;2022-09-09T10:09:25;24.40;57.00
10171;DHT22;5127;50.922;6.988;2022-09-09T10:11:59;24.40;55.80
10171;DHT22;5127;50.922;6.988;2022-09-09T10:14:34;24.30;56.20
10171;DHT22;5127;50.922;6.988;2022-09-09T10:17:14;24.30;56.20
10171;DHT22;5127;50.922;6.988;2022-09-09T10:19:54;24.30;55.90
10171;DHT22;5127;50.922;6.988;2022-09-09T10:22:27;24.30;55.80
10171;DHT22;5127;50.922;6.988;2022-09-09T10:25:11;24.30;57.00
10171;DHT22;5127;50.922;6.988;2022-09-09T10:27:47;24.30;55.40
10171;DHT22;5127;50.922;6.988;2022-09-09T10:30:19;24.40;56.20
10171;DHT22;5127;50.922;6.988;2022-09-09T10:32:56;24.30;56.80
10171;DHT22;5127;50.922;6.988;2022-09-09T10:35:30;24.30;56.00
10171;DHT22;5127;50.922;6.988;2022-09-09T10:38:16;24.30;56.60
10171;DHT22;5127;50.922;6.988;2022-09-09T10:40:50;24.30;55.10
10171;DHT22;5127;50.922;6.988;2022-09-09T10:43:39;24.30;55.80
10171;DHT22;5127;50.922;6.988;2022-09-09T10:46:16;24.30;55.60
10171;DHT22;5127;50.922;6.988;2022-09-09T10:48:57;24.30;56.20
10171;DHT22;5127;50.922;6.988;2022-09-09T10:51:33;24.40;55.40
10171;DHT22;5127;50.922;6.988;2022-09-09T10:57:00;24.50;54.50
10171;DHT22;5127;50.922;6.988;2022-09-09T10:59:33;24.50;55.60
10171;DHT22;5127;50.922;6.988;2022-09-09T11:02:03;24.60;55.60
10171;DHT22;5127;50.922;6.988;2022-09-09T11:04:38;24.60;56.60
10171;DHT22;5127;50.922;6.988;2022-09-09T11:07:10;24.70;55.90
10171;DHT22;5127;50.922;6.988;2022-09-09T11:09:41;24.70;56.40
10171;DHT22;5127;50.922;6.988;2022-09-09T11:12:17;24.80;56.20
10171;DHT22;5127;50.922;6.988;2022-09-09T11:14:49;24.80;55.40
10171;DHT22;5127;50.922;6.988;2022-09-09T11:17:20;24.90;55.40
10171;DHT22;5127;50.922;6.988;2022-09-09T11:19:49;24.90;55.40
10171;DHT22;5127;50.922;6.988;2022-09-09T11:22:23;25.00;56.20
10171;DHT22;5127;50.922;6.988;2022-09-09T11:24:59;24.90;54.70
10171;DHT22;5127;50.922;6.988;2022-09-09T11:27:31;24.90;54.40
10171;DHT22;5127;50.922;6.988;2022-09-09T11:30:13;25.00;54.00
10171;DHT22;5127;50.922;6.988;2022-09-09T11:33:08;24.90;53.80
10171;DHT22;5127;50.922;6.988;2022-09-09T11:35:48;24.80;53.10
10171;DHT22;5127;50.922;6.988;2022-09-09T11:38:25;24.80;54.60
10171;DHT22;5127;50.922;6.988;2022-09-09T11:41:01;24.80;54.80
10171;DHT22;5127;50.922;6.988;2022-09-09T11:43:34;24.80;54.70
10171;DHT22;5127;50.922;6.988;2022-09-09T11:46:06;24.70;54.90
10171;DHT22;5127;50.922;6.988;2022-09-09T11:48:35;24.80;56.20
10171;DHT22;5127;50.922;6.988;2022-09-09T11:51:06;24.80;55.80
10171;DHT22;5127;50.922;6.988;2022-09-09T11:53:35;24.80;55.40
10171;DHT22;5127;50.922;6.988;2022-09-09T11:56:06;24.90;55.80
10171;DHT22;5127;50.922;6.988;2022-09-09T11:58:41;24.90;55.50
10171;DHT22;5127;50.922;6.988;2022-09-09T12:01:33;25.00;54.70
10171;DHT22;5127;50.922;6.988;2022-09-09T12:07:02;25.10;53.80
10171;DHT22;5127;50.922;6.988;2022-09-09T12:09:36;25.10;54.90
10171;DHT22;5127;50.922;6.988;2022-09-09T12:12:07;25.10;54.60
10171;DHT22;5127;50.922;6.988;2022-09-09T12:14:37;25.10;54.90
10171;DHT22;5127;50.922;6.988;2022-09-09T12:17:10;25.10;54.10
10171;DHT22;5127;50.922;6.988;2022-09-09T12:19:44;25.00;52.90
10171;DHT22;5127;50.922;6.988;2022-09-09T12:22:18;25.00;54.30
10171;DHT22;5127;50.922;6.988;2022-09-09T12:24:54;24.90;53.40
10171;DHT22;5127;50.922;6.988;2022-09-09T12:27:27;24.80;53.10
10171;DHT22;5127;50.922;6.988;2022-09-09T12:30:02;24.80;53.20
10171;DHT22;5127;50.922;6.988;2022-09-09T12:32:30;24.80;53.70
10171;DHT22;5127;50.922;6.988;2022-09-09T12:34:59;24.90;54.70
10171;DHT22;5127;50.922;6.988;2022-09-09T12:37:33;24.90;54.40
10171;DHT22;5127;50.922;6.988;2022-09-09T12:40:03;24.90;54.40
10171;DHT22;5127;50.922;6.988;2022-09-09T12:42:31;25.00;54.50
10171;DHT22;5127;50.922;6.988;2022-09-09T12:45:03;25.00;54.60
10171;DHT22;5127;50.922;6.988;2022-09-09T12:47:46;25.00;54.00
10171;DHT22;5127;50.922;6.988;2022-09-09T12:50:17;25.00;53.80
10171;DHT22;5127;50.922;6.988;2022-09-09T12:52:47;25.00;54.10
10171;DHT22;5127;50.922;6.988;2022-09-09T12:55:17;25.00;54.00
10171;DHT22;5127;50.922;6.988;2022-09-09T12:57:46;24.90;53.90
10171;DHT22;5127;50.922;6.988;2022-09-09T13:00:19;24.90;54.50
10171;DHT22;5127;50.922;6.988;2022-09-09T13:02:50;24.90;54.10
10171;DHT22;5127;50.922;6.988;2022-09-09T13:05:21;24.90;54.30
10171;DHT22;5127;50.922;6.988;2022-09-09T13:07:48;24.90;54.60
10171;DHT22;5127;50.922;6.988;2022-09-09T13:10:23;25.00;55.00
10171;DHT22;5127;50.922;6.988;2022-09-09T13:12:52;25.00;54.30
10171;DHT22;5127;50.922;6.988;2022-09-09T13:15:23;25.10;55.00
10171;DHT22;5127;50.922;6.988;2022-09-09T13:17:55;25.10;54.30
10171;DHT22;5127;50.922;6.988;2022-09-09T13:20:24;25.20;54.30
10171;DHT22;5127;50.922;6.988;2022-09-09T13:22:52;25.20;54.00
10171;DHT22;5127;50.922;6.988;2022-09-09T13:25:23;25.20;54.40
10171;DHT22;5127;50.922;6.988;2022-09-09T13:27:54;25.30;53.60
10171;DHT22;5127;50.922;6.988;2022-09-09T13:30:26;25.30;53.50
10171;DHT22;5127;50.922;6.988;2022-09-09T13:33:05;25.30;53.30
10171;DHT22;5127;50.922;6.988;2022-09-09T13:35:33;25.30;52.90
10171;DHT22;5127;50.922;6.988;2022-09-09T13:38:07;25.40;54.10
10171;DHT22;5127;50.922;6.988;2022-09-09T13:40:35;25.40;52.60
10171;DHT22;5127;50.922;6.988;2022-09-09T13:43:03;25.30;54.10
10171;DHT22;5127;50.922;6.988;2022-09-09T13:45:32;25.30;54.20
10171;DHT22;5127;50.922;6.988;2022-09-09T13:48:09;25.30;53.90
10171;DHT22;5127;50.922;6.988;2022-09-09T13:50:36;25.30;52.70
10171;DHT22;5127;50.922;6.988;2022-09-09T13:53:03;25.30;53.90
10171;DHT22;5127;50.922;6.988;2022-09-09T13:55:31;25.30;54.40
10171;DHT22;5127;50.922;6.988;2022-09-09T13:57:59;25.30;54.30
10171;DHT22;5127;50.922;6.988;2022-09-09T14:00:29;25.30;54.30
10171;DHT22;5127;50.922;6.988;2022-09-09T14:02:58;25.30;54.10
10171;DHT22;5127;50.922;6.988;2022-09-09T14:05:28;25.40;54.50
10171;DHT22;5127;50.922;6.988;2022-09-09T14:07:57;25.30;54.30
10171;DHT22;5127;50.922;6.988;2022-09-09T14:10:26;25.30;54.10
10171;DHT22;5127;50.922;6.988;2022-09-09T14:12:54;25.30;54.10
10171;DHT22;5127;50.922;6.988;2022-09-09T14:15:22;25.30;53.90
10171;DHT22;5127;50.922;6.988;2022-09-09T14:17:49;25.20;53.70
10171;DHT22;5127;50.922;6.988;2022-09-09T14:20:19;25.20;54.00
10171;DHT22;5127;50.922;6.988;2022-09-09T14:22:46;25.10;53.90
10171;DHT22;5127;50.922;6.988;2022-09-09T14:25:14;25.00;54.40
10171;DHT22;5127;50.922;6.988;2022-09-09T14:27:41;25.00;54.50
10171;DHT22;5127;50.922;6.988;2022-09-09T14:38:10;24.80;55.30
10171;DHT22;5127;50.922;6.988;2022-09-09T14:40:38;24.80;54.40
10171;DHT22;5127;50.922;6.988;2022-09-09T14:43:06;24.70;54.80
10171;DHT22;5127;50.922;6.988;2022-09-09T14:45:35;24.70;55.30
10171;DHT22;5127;50.922;6.988;2022-09-09T14:48:03;24.60;56.20
10171;DHT22;5127;50.922;6.988;2022-09-09T14:50:31;24.50;56.60
10171;DHT22;5127;50.922;6.988;2022-09-09T14:53:00;24.40;57.20
10171;DHT22;5127;50.922;6.988;2022-09-09T14:55:29;24.20;56.80
10171;DHT22;5127;50.922;6.988;2022-09-09T14:57:57;24.00;57.20
10171;DHT22;5127;50.922;6.988;2022-09-09T15:00:24;23.80;58.00
10171;DHT22;5127;50.922;6.988;2022-09-09T15:02:52;23.60;59.10
10171;DHT22;5127;50.922;6.988;2022-09-09T15:05:19;23.40;58.90
10171;DHT22;5127;50.922;6.988;2022-09-09T15:07:47;23.30;59.50
10171;DHT22;5127;50.922;6.988;2022-09-09T15:10:15;23.20;60.00
10171;DHT22;5127;50.922;6.988;2022-09-09T15:12:44;23.10;60.90
10171;DHT22;5127;50.922;6.988;2022-09-09T15:15:11;23.00;61.20
10171;DHT22;5127;50.922;6.988;2022-09-09T15:17:39;23.00;61.60
10171;DHT22;5127;50.922;6.988;2022-09-09T15:20:07;23.00;61.70
10171;DHT22;5127;50.922;6.988;2022-09-09T15:22:35;22.90;61.80
10171;DHT22;5127;50.922;6.988;2022-09-09T15:25:04;22.90;61.90
10171;DHT22;5127;50.922;6.988;2022-09-09T15:27:31;22.90;62.10
10171;DHT22;5127;50.922;6.988;2022-09-09T15:30:01;22.90;62.60
10171;DHT22;5127;50.922;6.988;2022-09-09T15:32:28;23.00;63.00
10171;DHT22;5127;50.922;6.988;2022-09-09T15:34:56;23.00;63.00
10171;DHT22;5127;50.922;6.988;2022-09-09T15:37:23;22.90;63.00
10171;DHT22;5127;50.922;6.988;2022-09-09T15:39:50;23.00;63.30
10171;DHT22;5127;50.922;6.988;2022-09-09T15:42:17;23.00;63.40
10171;DHT22;5127;50.922;6.988;2022-09-09T15:44:45;23.00;63.30
10171;DHT22;5127;50.922;6.988;2022-09-09T15:47:13;23.00;63.00
10171;DHT22;5127;50.922;6.988;2022-09-09T15:49:41;23.00;63.00
10171;DHT22;5127;50.922;6.988;2022-09-09T15:52:10;22.90;62.80
10171;DHT22;5127;50.922;6.988;2022-09-09T15:54:37;22.90;62.50
10171;DHT22;5127;50.922;6.988;2022-09-09T15:57:07;22.80;62.20
10171;DHT22;5127;50.922;6.988;2022-09-09T15:59:35;22.80;62.20
10171;DHT22;5127;50.922;6.988;2022-09-09T16:02:03;22.60;61.80
10171;DHT22;5127;50.922;6.988;2022-09-09T16:04:32;22.50;61.60
10171;DHT22;5127;50.922;6.988;2022-09-09T16:07:01;22.40;61.60
10171;DHT22;5127;50.922;6.988;2022-09-09T16:09:30;22.20;61.60
10171;DHT22;5127;50.922;6.988;2022-09-09T16:11:58;22.10;61.70
10171;DHT22;5127;50.922;6.988;2022-09-09T16:14:27;21.90;61.90
10171;DHT22;5127;50.922;6.988;2022-09-09T16:16:55;21.80;62.20
10171;DHT22;5127;50.922;6.988;2022-09-09T16:19:22;21.70;62.20
10171;DHT22;5127;50.922;6.988;2022-09-09T16:21:50;21.60;62.20
10171;DHT22;5127;50.922;6.988;2022-09-09T16:24:18;21.50;62.40
10171;DHT22;5127;50.922;6.988;2022-09-09T16:26:48;21.50;62.70